sensor_id;sensor_type;location;lat;lon;timestamp;pressure;altitude;pressure_sealevel;temperature;humidity
59825;BME280;45703;50.898;6.054;2024-02-28T00:01:16;100562.34;;;1.46;100.00
59825;BME280;45703;50.898;6.054;2024-02-28T00:03:41;100570.72;;;1.42;100.00
59825;BME280;45703;50.898;6.054;2024-02-28T00:06:07;100568.03;;;1.34;100.00
59825;BME280;45703;50.898;6.054;2024-02-28T00:08:32;100565.31;;;1.26;100.00
59825;BME280;45703;50.898;6.054;2024-02-28T00:10:57;100558.72;;;1.22;100.00
59825;BME280;45703;50.898;6.054;2024-02-28T00:13:23;100561.00;;;1.17;100.00
59825;BME280;45703;50.898;6.054;2024-02-28T00:15:49;100565.75;;;1.14;100.00
59825;BME280;45703;50.898;6.054;2024-02-28T00:18:15;100557.19;;;1.12;100.00
59825;BME280;45703;50.898;6.054;2024-02-28T00:20:40;100554.19;;;1.07;100.00
59825;BME280;45703;50.898;6.054;2024-02-28T00:23:06;100550.72;;;1.06;100.00
59825;BME280;45703;50.898;6.054;2024-02-28T00:25:31;100552.31;;;0.99;100.00
59825;BME280;45703;50.898;6.054;2024-02-28T00:27:56;100556.91;;;0.97;100.00
59825;BME280;45703;50.898;6.054;2024-02-28T00:30:22;100550.97;;;0.95;100.00
59825;BME280;45703;50.898;6.054;2024-02-28T00:32:47;100546.34;;;0.89;100.00
59825;BME280;45703;50.898;6.054;2024-02-28T00:35:13;100553.25;;;0.90;100.00
59825;BME280;45703;50.898;6.054;2024-02-28T00:37:38;100540.03;;;0.82;100.00
59825;BME280;45703;50.898;6.054;2024-02-28T00:40:04;100555.19;;;0.88;100.00
59825;BME280;45703;50.898;6.054;2024-02-28T00:42:29;100554.06;;;0.91;100.00
59825;BME280;45703;50.898;6.054;2024-02-28T00:44:55;100558.81;;;0.87;100.00
59825;BME280;45703;50.898;6.054;2024-02-28T00:47:20;100558.50;;;0.90;100.00
59825;BME280;45703;50.898;6.054;2024-02-28T00:49:45;100559.97;;;0.93;100.00
59825;BME280;45703;50.898;6.054;2024-02-28T00:52:12;100549.63;;;0.91;100.00
59825;BME280;45703;50.898;6.054;2024-02-28T00:54:37;100553.53;;;0.87;100.00
59825;BME280;45703;50.898;6.054;2024-02-28T00:57:03;100550.25;;;0.85;100.00
59825;BME280;45703;50.898;6.054;2024-02-28T00:59:28;100550.75;;;0.89;100.00
59825;BME280;45703;50.898;6.054;2024-02-28T01:01:53;100550.25;;;0.85;100.00
59825;BME280;45703;50.898;6.054;2024-02-28T01:04:19;100543.03;;;0.87;100.00
59825;BME280;45703;50.898;6.054;2024-02-28T01:06:44;100551.22;;;0.84;100.00
59825;BME280;45703;50.898;6.054;2024-02-28T01:09:09;100556.19;;;0.87;100.00
59825;BME280;45703;50.898;6.054;2024-02-28T01:11:35;100570.97;;;0.88;100.00
59825;BME280;45703;50.898;6.054;2024-02-28T01:14:00;100566.88;;;0.94;100.00
59825;BME280;45703;50.898;6.054;2024-02-28T01:16:26;100569.22;;;0.97;100.00
59825;BME280;45703;50.898;6.054;2024-02-28T01:18:53;100576.03;;;1.07;100.00
59825;BME280;45703;50.898;6.054;2024-02-28T01:21:18;100566.88;;;1.11;100.00
59825;BME280;45703;50.898;6.054;2024-02-28T01:23:44;100559.03;;;1.19;100.00
59825;BME280;45703;50.898;6.054;2024-02-28T01:26:09;100578.25;;;1.37;100.00
59825;BME280;45703;50.898;6.054;2024-02-28T01:28:35;100576.31;;;1.47;100.00
59825;BME280;45703;50.898;6.054;2024-02-28T01:31:00;100565.84;;;1.55;100.00
59825;BME280;45703;50.898;6.054;2024-02-28T01:33:26;100577.09;;;1.65;100.00
59825;BME280;45703;50.898;6.054;2024-02-28T01:35:51;100561.81;;;1.68;100.00
59825;BME280;45703;50.898;6.054;2024-02-28T01:38:17;100562.66;;;1.77;100.00
59825;BME280;45703;50.898;6.054;2024-02-28T01:40:46;100554.97;;;1.83;100.00
59825;BME280;45703;50.898;6.054;2024-02-28T01:43:12;100557.16;;;1.88;100.00
59825;BME280;45703;50.898;6.054;2024-02-28T01:45:38;100556.50;;;1.94;100.00
59825;BME280;45703;50.898;6.054;2024-02-28T01:48:04;100561.47;;;1.97;100.00
59825;BME280;45703;50.898;6.054;2024-02-28T01:50:32;100557.84;;;1.98;100.00
59825;BME280;45703;50.898;6.054;2024-02-28T01:52:58;100553.06;;;2.01;100.00
59825;BME280;45703;50.898;6.054;2024-02-28T01:55:23;100553.25;;;2.08;100.00
59825;BME280;45703;50.898;6.054;2024-02-28T01:57:49;100552.28;;;2.09;100.00
59825;BME280;45703;50.898;6.054;2024-02-28T02:00:15;100555.91;;;2.16;100.00
59825;BME280;45703;50.898;6.054;2024-02-28T02:02:42;100547.88;;;2.17;100.00
59825;BME280;45703;50.898;6.054;2024-02-28T02:05:08;100543.25;;;2.19;100.00
59825;BME280;45703;50.898;6.054;2024-02-28T02:07:34;100540.47;;;2.21;100.00
59825;BME280;45703;50.898;6.054;2024-02-28T02:10:00;100528.94;;;2.22;100.00
59825;BME280;45703;50.898;6.054;2024-02-28T02:12:26;100530.91;;;2.28;100.00
59825;BME280;45703;50.898;6.054;2024-02-28T02:14:51;100539.66;;;2.28;100.00
59825;BME280;45703;50.898;6.054;2024-02-28T02:17:17;100546.06;;;2.26;100.00
59825;BME280;45703;50.898;6.054;2024-02-28T02:19:42;100546.78;;;2.36;100.00
59825;BME280;45703;50.898;6.054;2024-02-28T02:22:08;100546.44;;;2.39;100.00
59825;BME280;45703;50.898;6.054;2024-02-28T02:24:34;100543.16;;;2.45;100.00
59825;BME280;45703;50.898;6.054;2024-02-28T02:27:00;100553.19;;;2.49;100.00
59825;BME280;45703;50.898;6.054;2024-02-28T02:29:26;100547.47;;;2.54;100.00
59825;BME280;45703;50.898;6.054;2024-02-28T02:31:53;100543.50;;;2.58;100.00
59825;BME280;45703;50.898;6.054;2024-02-28T02:34:19;100551.09;;;2.61;100.00
59825;BME280;45703;50.898;6.054;2024-02-28T02:36:44;100551.75;;;2.63;100.00
59825;BME280;45703;50.898;6.054;2024-02-28T02:39:09;100551.28;;;2.67;100.00
59825;BME280;45703;50.898;6.054;2024-02-28T02:41:35;100556.03;;;2.72;100.00
59825;BME280;45703;50.898;6.054;2024-02-28T02:44:00;100556.69;;;2.74;100.00
59825;BME280;45703;50.898;6.054;2024-02-28T02:46:25;100565.25;;;2.76;100.00
59825;BME280;45703;50.898;6.054;2024-02-28T02:48:51;100566.56;;;2.79;100.00
59825;BME280;45703;50.898;6.054;2024-02-28T02:51:19;100565.28;;;2.83;100.00
59825;BME280;45703;50.898;6.054;2024-02-28T02:53:44;100571.22;;;2.85;100.00
59825;BME280;45703;50.898;6.054;2024-02-28T02:56:10;100576.97;;;2.89;100.00
59825;BME280;45703;50.898;6.054;2024-02-28T02:58:35;100582.09;;;2.90;100.00
59825;BME280;45703;50.898;6.054;2024-02-28T03:01:00;100582.25;;;2.89;100.00
59825;BME280;45703;50.898;6.054;2024-02-28T03:03:26;100567.59;;;2.86;100.00
59825;BME280;45703;50.898;6.054;2024-02-28T03:05:51;100572.69;;;2.88;100.00
59825;BME280;45703;50.898;6.054;2024-02-28T03:08:16;100577.97;;;2.88;100.00
59825;BME280;45703;50.898;6.054;2024-02-28T03:10:42;100571.22;;;2.85;100.00
59825;BME280;45703;50.898;6.054;2024-02-28T03:13:07;100569.56;;;2.84;100.00
59825;BME280;45703;50.898;6.054;2024-02-28T03:15:33;100573.19;;;2.83;100.00
59825;BME280;45703;50.898;6.054;2024-02-28T03:17:59;100572.84;;;2.78;100.00
59825;BME280;45703;50.898;6.054;2024-02-28T03:20:24;100575.16;;;2.74;100.00
59825;BME280;45703;50.898;6.054;2024-02-28T03:22:50;100567.09;;;2.67;100.00
59825;BME280;45703;50.898;6.054;2024-02-28T03:25:16;100562.63;;;2.60;100.00
59825;BME280;45703;50.898;6.054;2024-02-28T03:27:41;100562.59;;;2.52;100.00
59825;BME280;45703;50.898;6.054;2024-02-28T03:30:07;100567.34;;;2.48;100.00
59825;BME280;45703;50.898;6.054;2024-02-28T03:32:32;100561.94;;;2.50;100.00
59825;BME280;45703;50.898;6.054;2024-02-28T03:34:58;100563.41;;;2.52;100.00
59825;BME280;45703;50.898;6.054;2024-02-28T03:37:23;100565.91;;;2.54;100.00
59825;BME280;45703;50.898;6.054;2024-02-28T03:39:48;100561.16;;;2.57;100.00
59825;BME280;45703;50.898;6.054;2024-02-28T03:42:14;100570.53;;;2.60;100.00
59825;BME280;45703;50.898;6.054;2024-02-28T03:44:39;100577.44;;;2.61;100.00
59825;BME280;45703;50.898;6.054;2024-02-28T03:47:05;100577.09;;;2.64;100.00
59825;BME280;45703;50.898;6.054;2024-02-28T03:49:30;100588.31;;;2.74;100.00
59825;BME280;45703;50.898;6.054;2024-02-28T03:51:55;100599.19;;;2.78;100.00
59825;BME280;45703;50.898;6.054;2024-02-28T03:54:21;100599.84;;;2.80;100.00
59825;BME280;45703;50.898;6.054;2024-02-28T03:56:46;100597.91;;;2.83;100.00
59825;BME280;45703;50.898;6.054;2024-02-28T03:59:12;100606.50;;;2.84;100.00
59825;BME280;45703;50.898;6.054;2024-02-28T04:01:37;100613.06;;;2.88;100.00
59825;BME280;45703;50.898;6.054;2024-02-28T04:04:03;100609.94;;;2.93;100.00
59825;BME280;45703;50.898;6.054;2024-02-28T04:06:28;100614.72;;;2.97;100.00
59825;BME280;45703;50.898;6.054;2024-02-28T04:08:53;100615.41;;;2.99;100.00
59825;BME280;45703;50.898;6.054;2024-02-28T04:11:19;100609.94;;;3.01;100.00
59825;BME280;45703;50.898;6.054;2024-02-28T04:13:45;100619.34;;;3.03;100.00
59825;BME280;45703;50.898;6.054;2024-02-28T04:16:10;100615.25;;;3.09;100.00
59825;BME280;45703;50.898;6.054;2024-02-28T04:18:36;100612.44;;;3.10;100.00
59825;BME280;45703;50.898;6.054;2024-02-28T04:21:02;100620.00;;;3.13;100.00
59825;BME280;45703;50.898;6.054;2024-02-28T04:23:27;100617.03;;;3.16;100.00
59825;BME280;45703;50.898;6.054;2024-02-28T04:25:53;100604.03;;;3.15;100.00
59825;BME280;45703;50.898;6.054;2024-02-28T04:28:18;100615.06;;;3.18;100.00
59825;BME280;45703;50.898;6.054;2024-02-28T04:30:43;100616.22;;;3.16;100.00
59825;BME280;45703;50.898;6.054;2024-02-28T04:33:09;100619.00;;;3.14;100.00
59825;BME280;45703;50.898;6.054;2024-02-28T04:35:34;100609.63;;;3.12;100.00
59825;BME280;45703;50.898;6.054;2024-02-28T04:38:00;100612.75;;;3.07;100.00
59825;BME280;45703;50.898;6.054;2024-02-28T04:40:25;100608.94;;;3.02;100.00
59825;BME280;45703;50.898;6.054;2024-02-28T04:42:50;100612.91;;;2.98;100.00
59825;BME280;45703;50.898;6.054;2024-02-28T04:45:16;100605.84;;;2.90;100.00
59825;BME280;45703;50.898;6.054;2024-02-28T04:47:41;100599.72;;;2.82;100.00
59825;BME280;45703;50.898;6.054;2024-02-28T04:50:07;100603.16;;;2.75;100.00
59825;BME280;45703;50.898;6.054;2024-02-28T04:52:33;100613.69;;;2.67;100.00
59825;BME280;45703;50.898;6.054;2024-02-28T04:54:58;100604.13;;;2.58;100.00
59825;BME280;45703;50.898;6.054;2024-02-28T04:57:24;100606.75;;;2.50;100.00
59825;BME280;45703;50.898;6.054;2024-02-28T04:59:49;100609.03;;;2.45;100.00
59825;BME280;45703;50.898;6.054;2024-02-28T05:02:15;100614.09;;;2.38;100.00
59825;BME280;45703;50.898;6.054;2024-02-28T05:04:41;100617.38;;;2.32;100.00
59825;BME280;45703;50.898;6.054;2024-02-28T05:07:06;100620.34;;;2.29;100.00
59825;BME280;45703;50.898;6.054;2024-02-28T05:09:33;100619.34;;;2.30;100.00
59825;BME280;45703;50.898;6.054;2024-02-28T05:11:58;100624.75;;;2.29;100.00
59825;BME280;45703;50.898;6.054;2024-02-28T05:14:24;100619.22;;;2.32;100.00
59825;BME280;45703;50.898;6.054;2024-02-28T05:16:49;100623.31;;;2.34;100.00
59825;BME280;45703;50.898;6.054;2024-02-28T05:19:15;100625.94;;;2.34;100.00
59825;BME280;45703;50.898;6.054;2024-02-28T05:21:43;100625.81;;;2.36;100.00
59825;BME280;45703;50.898;6.054;2024-02-28T05:24:09;100634.06;;;2.41;100.00
59825;BME280;45703;50.898;6.054;2024-02-28T05:26:35;100625.16;;;2.42;100.00
59825;BME280;45703;50.898;6.054;2024-02-28T05:29:01;100624.50;;;2.48;100.00
59825;BME280;45703;50.898;6.054;2024-02-28T05:31:27;100632.25;;;2.49;100.00
59825;BME280;45703;50.898;6.054;2024-02-28T05:33:54;100641.81;;;2.50;100.00
59825;BME280;45703;50.898;6.054;2024-02-28T05:36:22;100640.66;;;2.53;100.00
59825;BME280;45703;50.898;6.054;2024-02-28T05:38:47;100647.44;;;2.55;100.00
59825;BME280;45703;50.898;6.054;2024-02-28T05:41:13;100651.56;;;2.58;100.00
59825;BME280;45703;50.898;6.054;2024-02-28T05:43:40;100648.59;;;2.61;100.00
59825;BME280;45703;50.898;6.054;2024-02-28T05:46:06;100657.16;;;2.63;100.00
59825;BME280;45703;50.898;6.054;2024-02-28T05:48:31;100646.63;;;2.63;100.00
59825;BME280;45703;50.898;6.054;2024-02-28T05:50:56;100654.38;;;2.64;100.00
59825;BME280;45703;50.898;6.054;2024-02-28T05:53:22;100653.53;;;2.64;100.00
59825;BME280;45703;50.898;6.054;2024-02-28T05:55:52;100655.03;;;2.66;100.00
59825;BME280;45703;50.898;6.054;2024-02-28T05:58:19;100660.47;;;2.65;100.00
59825;BME280;45703;50.898;6.054;2024-02-28T06:00:44;100666.72;;;2.64;100.00
59825;BME280;45703;50.898;6.054;2024-02-28T06:03:09;100665.38;;;2.60;100.00
59825;BME280;45703;50.898;6.054;2024-02-28T06:05:35;100679.56;;;2.59;100.00
59825;BME280;45703;50.898;6.054;2024-02-28T06:08:00;100669.19;;;2.57;100.00
59825;BME280;45703;50.898;6.054;2024-02-28T06:10:25;100672.31;;;2.61;100.00
59825;BME280;45703;50.898;6.054;2024-02-28T06:12:54;100671.31;;;2.62;100.00
59825;BME280;45703;50.898;6.054;2024-02-28T06:15:19;100672.31;;;2.61;100.00
59825;BME280;45703;50.898;6.054;2024-02-28T06:17:45;100671.31;;;2.62;100.00
59825;BME280;45703;50.898;6.054;2024-02-28T06:20:10;100689.78;;;2.62;100.00
59825;BME280;45703;50.898;6.054;2024-02-28T06:22:36;100686.47;;;2.60;100.00
59825;BME280;45703;50.898;6.054;2024-02-28T06:25:01;100683.16;;;2.58;100.00
59825;BME280;45703;50.898;6.054;2024-02-28T06:27:26;100684.81;;;2.59;100.00
59825;BME280;45703;50.898;6.054;2024-02-28T06:29:52;100695.38;;;2.59;100.00
59825;BME280;45703;50.898;6.054;2024-02-28T06:32:18;100687.00;;;2.63;100.00
59825;BME280;45703;50.898;6.054;2024-02-28T06:34:43;100688.13;;;2.61;100.00
59825;BME280;45703;50.898;6.054;2024-02-28T06:37:08;100693.72;;;2.58;100.00
59825;BME280;45703;50.898;6.054;2024-02-28T06:39:34;100692.38;;;2.54;100.00
59825;BME280;45703;50.898;6.054;2024-02-28T06:41:59;100695.34;;;2.51;100.00
59825;BME280;45703;50.898;6.054;2024-02-28T06:44:24;100682.81;;;2.45;100.00
59825;BME280;45703;50.898;6.054;2024-02-28T06:46:50;100693.66;;;2.42;100.00
59825;BME280;45703;50.898;6.054;2024-02-28T06:49:15;100697.75;;;2.36;100.00
59825;BME280;45703;50.898;6.054;2024-02-28T06:51:43;100699.22;;;2.31;100.00
59825;BME280;45703;50.898;6.054;2024-02-28T06:54:09;100706.63;;;2.35;100.00
59825;BME280;45703;50.898;6.054;2024-02-28T06:56:35;100725.59;;;2.39;100.00
59825;BME280;45703;50.898;6.054;2024-02-28T06:59:01;100725.63;;;2.47;100.00
59825;BME280;45703;50.898;6.054;2024-02-28T07:01:27;100714.59;;;2.51;100.00
59825;BME280;45703;50.898;6.054;2024-02-28T07:03:52;100716.44;;;2.59;100.00
59825;BME280;45703;50.898;6.054;2024-02-28T07:06:17;100722.91;;;2.64;100.00
59825;BME280;45703;50.898;6.054;2024-02-28T07:08:43;100725.41;;;2.74;100.00
59825;BME280;45703;50.898;6.054;2024-02-28T07:11:13;100729.75;;;2.83;100.00
59825;BME280;45703;50.898;6.054;2024-02-28T07:13:39;100721.19;;;2.88;100.00
59825;BME280;45703;50.898;6.054;2024-02-28T07:16:04;100727.81;;;3.00;100.00
59825;BME280;45703;50.898;6.054;2024-02-28T07:18:30;100726.03;;;3.09;100.00
59825;BME280;45703;50.898;6.054;2024-02-28T07:20:55;100729.47;;;3.17;100.00
59825;BME280;45703;50.898;6.054;2024-02-28T07:23:20;100720.91;;;3.23;100.00
59825;BME280;45703;50.898;6.054;2024-02-28T07:25:46;100725.88;;;3.26;100.00
59825;BME280;45703;50.898;6.054;2024-02-28T07:28:11;100727.88;;;3.32;100.00
59825;BME280;45703;50.898;6.054;2024-02-28T07:30:36;100729.84;;;3.38;100.00
59825;BME280;45703;50.898;6.054;2024-02-28T07:33:02;100733.16;;;3.40;100.00
59825;BME280;45703;50.898;6.054;2024-02-28T07:35:30;100734.47;;;3.44;100.00
59825;BME280;45703;50.898;6.054;2024-02-28T07:37:55;100730.84;;;3.53;100.00
59825;BME280;45703;50.898;6.054;2024-02-28T07:40:20;100731.50;;;3.63;100.00
59825;BME280;45703;50.898;6.054;2024-02-28T07:42:46;100738.75;;;3.69;100.00
59825;BME280;45703;50.898;6.054;2024-02-28T07:45:11;100743.38;;;3.75;100.00
59825;BME280;45703;50.898;6.054;2024-02-28T07:47:37;100745.69;;;3.78;100.00
59825;BME280;45703;50.898;6.054;2024-02-28T07:50:02;100735.78;;;3.80;100.00
59825;BME280;45703;50.898;6.054;2024-02-28T07:52:28;100736.63;;;3.89;100.00
59825;BME280;45703;50.898;6.054;2024-02-28T07:54:53;100750.66;;;3.89;100.00
59825;BME280;45703;50.898;6.054;2024-02-28T07:57:19;100752.97;;;3.92;100.00
59825;BME280;45703;50.898;6.054;2024-02-28T07:59:44;100756.25;;;3.94;100.00
59825;BME280;45703;50.898;6.054;2024-02-28T08:02:10;100757.91;;;3.95;100.00
59825;BME280;45703;50.898;6.054;2024-02-28T08:04:38;100762.69;;;4.00;100.00
59825;BME280;45703;50.898;6.054;2024-02-28T08:07:04;100761.88;;;3.99;100.00
59825;BME280;45703;50.898;6.054;2024-02-28T08:09:48;100759.72;;;4.03;100.00
59825;BME280;45703;50.898;6.054;2024-02-28T08:12:13;100753.28;;;4.05;100.00
59825;BME280;45703;50.898;6.054;2024-02-28T08:14:39;100746.81;;;4.08;100.00
59825;BME280;45703;50.898;6.054;2024-02-28T08:17:04;100753.44;;;4.12;100.00
59825;BME280;45703;50.898;6.054;2024-02-28T08:19:29;100751.94;;;4.17;100.00
59825;BME280;45703;50.898;6.054;2024-02-28T08:21:55;100745.97;;;4.23;100.00
59825;BME280;45703;50.898;6.054;2024-02-28T08:24:20;100749.59;;;4.30;100.00
59825;BME280;45703;50.898;6.054;2024-02-28T08:26:45;100766.44;;;4.37;100.00
59825;BME280;45703;50.898;6.054;2024-02-28T08:29:11;100758.84;;;4.42;100.00
59825;BME280;45703;50.898;6.054;2024-02-28T08:31:43;100764.09;;;4.50;100.00
59825;BME280;45703;50.898;6.054;2024-02-28T08:34:09;100769.34;;;4.58;100.00
59825;BME280;45703;50.898;6.054;2024-02-28T08:36:35;100765.38;;;4.62;100.00
59825;BME280;45703;50.898;6.054;2024-02-28T08:39:01;100768.16;;;4.68;100.00
59825;BME280;45703;50.898;6.054;2024-02-28T08:41:26;100769.78;;;4.77;100.00
59825;BME280;45703;50.898;6.054;2024-02-28T08:43:51;100765.47;;;4.84;100.00
59825;BME280;45703;50.898;6.054;2024-02-28T08:46:17;100779.84;;;4.90;100.00
59825;BME280;45703;50.898;6.054;2024-02-28T08:48:42;100775.31;;;4.98;100.00
59825;BME280;45703;50.898;6.054;2024-02-28T08:51:08;100777.44;;;5.03;100.00
59825;BME280;45703;50.898;6.054;2024-02-28T08:53:33;100778.41;;;5.10;100.00
59825;BME280;45703;50.898;6.054;2024-02-28T08:55:58;100785.00;;;5.14;100.00
59825;BME280;45703;50.898;6.054;2024-02-28T08:58:24;100776.06;;;5.15;100.00
59825;BME280;45703;50.898;6.054;2024-02-28T09:00:49;100782.31;;;5.22;100.00
59825;BME280;45703;50.898;6.054;2024-02-28T09:03:14;100780.16;;;5.25;100.00
59825;BME280;45703;50.898;6.054;2024-02-28T09:05:40;100791.50;;;5.34;100.00
59825;BME280;45703;50.898;6.054;2024-02-28T09:08:05;100803.41;;;5.38;100.00
59825;BME280;45703;50.898;6.054;2024-02-28T09:10:31;100792.94;;;5.44;100.00
59825;BME280;45703;50.898;6.054;2024-02-28T09:12:59;100789.41;;;5.52;100.00
59825;BME280;45703;50.898;6.054;2024-02-28T09:15:25;100791.16;;;5.59;100.00
59825;BME280;45703;50.898;6.054;2024-02-28T09:17:50;100791.94;;;5.67;100.00
59825;BME280;45703;50.898;6.054;2024-02-28T09:20:16;100801.66;;;5.75;100.00
59825;BME280;45703;50.898;6.054;2024-02-28T09:22:42;100792.50;;;5.85;100.00
59825;BME280;45703;50.898;6.054;2024-02-28T09:25:08;100793.91;;;5.96;100.00
59825;BME280;45703;50.898;6.054;2024-02-28T09:27:34;100794.47;;;6.06;100.00
59825;BME280;45703;50.898;6.054;2024-02-28T09:30:00;100799.84;;;6.20;100.00
59825;BME280;45703;50.898;6.054;2024-02-28T09:32:25;100787.63;;;6.34;100.00
59825;BME280;45703;50.898;6.054;2024-02-28T09:34:51;100784.06;;;6.41;100.00
59825;BME280;45703;50.898;6.054;2024-02-28T09:37:16;100773.38;;;6.49;100.00
59825;BME280;45703;50.898;6.054;2024-02-28T09:39:47;100767.59;;;6.60;100.00
59825;BME280;45703;50.898;6.054;2024-02-28T09:42:14;100770.63;;;6.72;100.00
59825;BME280;45703;50.898;6.054;2024-02-28T09:44:40;100763.00;;;6.83;100.00
59825;BME280;45703;50.898;6.054;2024-02-28T09:47:05;100759.91;;;6.94;100.00
59825;BME280;45703;50.898;6.054;2024-02-28T09:49:38;100754.88;;;6.99;100.00
59825;BME280;45703;50.898;6.054;2024-02-28T09:52:03;100757.78;;;7.04;100.00
59825;BME280;45703;50.898;6.054;2024-02-28T09:54:32;100748.06;;;7.11;100.00
59825;BME280;45703;50.898;6.054;2024-02-28T09:56:58;100744.66;;;7.17;100.00
59825;BME280;45703;50.898;6.054;2024-02-28T09:59:26;100746.28;;;7.32;100.00
59825;BME280;45703;50.898;6.054;2024-02-28T10:01:56;100731.84;;;7.41;100.00
59825;BME280;45703;50.898;6.054;2024-02-28T10:04:26;100739.31;;;7.52;100.00
59825;BME280;45703;50.898;6.054;2024-02-28T10:06:52;100739.66;;;7.64;100.00
59825;BME280;45703;50.898;6.054;2024-02-28T10:09:18;100745.47;;;7.74;100.00
59825;BME280;45703;50.898;6.054;2024-02-28T10:12:02;100746.59;;;7.86;100.00
59825;BME280;45703;50.898;6.054;2024-02-28T10:14:28;100745.06;;;7.98;100.00
59825;BME280;45703;50.898;6.054;2024-02-28T10:16:55;100741.03;;;8.08;100.00
59825;BME280;45703;50.898;6.054;2024-02-28T10:19:20;100751.41;;;8.18;100.00
59825;BME280;45703;50.898;6.054;2024-02-28T10:21:46;100747.38;;;8.28;100.00
59825;BME280;45703;50.898;6.054;2024-02-28T10:24:12;100751.31;;;8.39;100.00
59825;BME280;45703;50.898;6.054;2024-02-28T10:26:44;100753.03;;;8.46;100.00
59825;BME280;45703;50.898;6.054;2024-02-28T10:29:13;100752.06;;;8.54;100.00
59825;BME280;45703;50.898;6.054;2024-02-28T10:31:39;100758.25;;;8.60;100.00
59825;BME280;45703;50.898;6.054;2024-02-28T10:34:06;100752.06;;;8.60;100.00
59825;BME280;45703;50.898;6.054;2024-02-28T10:36:32;100759.09;;;8.67;100.00
59825;BME280;45703;50.898;6.054;2024-02-28T10:38:59;100760.97;;;8.73;100.00
59825;BME280;45703;50.898;6.054;2024-02-28T10:41:26;100758.75;;;8.77;100.00
59825;BME280;45703;50.898;6.054;2024-02-28T10:43:51;100757.50;;;8.79;100.00
59825;BME280;45703;50.898;6.054;2024-02-28T10:46:20;100754.41;;;8.69;100.00
59825;BME280;45703;50.898;6.054;2024-02-28T10:48:46;100758.75;;;8.83;100.00
59825;BME280;45703;50.898;6.054;2024-02-28T10:51:15;100759.16;;;8.80;100.00
59825;BME280;45703;50.898;6.054;2024-02-28T10:53:42;100763.84;;;8.78;100.00
59825;BME280;45703;50.898;6.054;2024-02-28T10:56:11;100748.00;;;8.64;100.00
59825;BME280;45703;50.898;6.054;2024-02-28T10:58:37;100751.38;;;8.79;100.00
59825;BME280;45703;50.898;6.054;2024-02-28T11:01:07;100752.81;;;8.81;100.00
59825;BME280;45703;50.898;6.054;2024-02-28T11:03:33;100753.28;;;8.91;100.00
59825;BME280;45703;50.898;6.054;2024-02-28T11:05:59;100752.50;;;8.97;100.00
59825;BME280;45703;50.898;6.054;2024-02-28T11:08:27;100754.59;;;9.08;100.00
59825;BME280;45703;50.898;6.054;2024-02-28T11:11:03;100756.88;;;9.18;100.00
59825;BME280;45703;50.898;6.054;2024-02-28T11:13:33;100755.28;;;9.30;100.00
59825;BME280;45703;50.898;6.054;2024-02-28T11:16:09;100751.59;;;9.31;100.00
59825;BME280;45703;50.898;6.054;2024-02-28T11:18:35;100751.59;;;9.37;100.00
59825;BME280;45703;50.898;6.054;2024-02-28T11:21:01;100746.28;;;9.31;100.00
59825;BME280;45703;50.898;6.054;2024-02-28T11:23:35;100739.91;;;9.38;100.00
59825;BME280;45703;50.898;6.054;2024-02-28T11:26:02;100744.22;;;9.39;100.00
59825;BME280;45703;50.898;6.054;2024-02-28T11:28:28;100738.75;;;9.47;100.00
59825;BME280;45703;50.898;6.054;2024-02-28T11:30:54;100737.94;;;9.53;100.00
59825;BME280;45703;50.898;6.054;2024-02-28T11:33:19;100746.75;;;9.60;100.00
59825;BME280;45703;50.898;6.054;2024-02-28T11:35:55;100732.00;;;9.64;100.00
59825;BME280;45703;50.898;6.054;2024-02-28T11:38:21;100736.09;;;9.60;100.00
59825;BME280;45703;50.898;6.054;2024-02-28T11:40:50;100728.28;;;9.59;100.00
59825;BME280;45703;50.898;6.054;2024-02-28T11:43:15;100724.63;;;9.66;100.00
59825;BME280;45703;50.898;6.054;2024-02-28T11:45:41;100716.00;;;9.77;100.00
59825;BME280;45703;50.898;6.054;2024-02-28T11:48:11;100717.22;;;9.81;100.00
59825;BME280;45703;50.898;6.054;2024-02-28T11:50:37;100710.06;;;9.75;100.00
59825;BME280;45703;50.898;6.054;2024-02-28T11:53:03;100715.38;;;9.88;100.00
59825;BME280;45703;50.898;6.054;2024-02-28T11:55:30;100716.00;;;9.97;100.00
59825;BME280;45703;50.898;6.054;2024-02-28T11:57:55;100704.75;;;10.07;100.00
59825;BME280;45703;50.898;6.054;2024-02-28T12:00:21;100712.34;;;10.17;100.00
59825;BME280;45703;50.898;6.054;2024-02-28T12:02:46;100707.81;;;10.17;100.00
59825;BME280;45703;50.898;6.054;2024-02-28T12:05:12;100705.94;;;10.31;100.00
59825;BME280;45703;50.898;6.054;2024-02-28T12:07:38;100702.66;;;10.35;100.00
59825;BME280;45703;50.898;6.054;2024-02-28T12:10:04;100696.50;;;10.48;100.00
59825;BME280;45703;50.898;6.054;2024-02-28T12:12:31;100703.25;;;10.57;100.00
59825;BME280;45703;50.898;6.054;2024-02-28T12:15:01;100692.13;;;10.60;100.00
59825;BME280;45703;50.898;6.054;2024-02-28T12:17:29;100695.78;;;10.65;100.00
59825;BME280;45703;50.898;6.054;2024-02-28T12:19:54;100683.28;;;10.66;100.00
59825;BME280;45703;50.898;6.054;2024-02-28T12:22:21;100690.03;;;10.75;100.00
59825;BME280;45703;50.898;6.054;2024-02-28T12:24:47;100690.81;;;10.82;100.00
59825;BME280;45703;50.898;6.054;2024-02-28T12:27:12;100678.66;;;10.92;100.00
59825;BME280;45703;50.898;6.054;2024-02-28T12:29:38;100676.56;;;11.01;100.00
59825;BME280;45703;50.898;6.054;2024-02-28T12:32:03;100674.69;;;11.08;100.00
59825;BME280;45703;50.898;6.054;2024-02-28T12:34:29;100675.66;;;11.13;100.00
59825;BME280;45703;50.898;6.054;2024-02-28T12:36:54;100674.06;;;11.06;100.00
59825;BME280;45703;50.898;6.054;2024-02-28T12:39:19;100669.28;;;11.14;100.00
59825;BME280;45703;50.898;6.054;2024-02-28T12:41:45;100665.81;;;11.14;100.00
59825;BME280;45703;50.898;6.054;2024-02-28T12:44:10;100665.66;;;10.96;100.00